Time;durP1;ratioP1;P1;durP2;ratioP2;P2;SDS_P1;SDS_P2;PMS_P1;PMS_P2;Temp;Humidity;BMP_temperature;BMP_pressure;BME280_temperature;BME280_humidity;BME280_pressure;Samples;Min_cycle;Max_cycle;Signal;HPM_P1;HPM_P2
2021/06/19 00:02:01;;;;;;;8.90;8.02;;;;;;;;;;5075310;28;20977;-91
2021/06/19 00:04:30;;;;;;;9.70;8.80;;;;;;;;;;5074930;28;20467;-92
2021/06/19 00:06:57;;;;;;;10.33;8.73;;;;;;;;;;5075374;28;20371;-93
2021/06/19 00:09:23;;;;;;;12.18;8.40;;;;;;;;;;5074977;28;20384;-90
2021/06/19 00:11:49;;;;;;;9.40;8.50;;;;;;;;;;5075160;28;20388;-91
2021/06/19 00:14:15;;;;;;;10.68;9.25;;;;;;;;;;5074641;28;20596;-91
2021/06/19 00:16:41;;;;;;;9.43;8.43;;;;;;;;;;5075279;28;20479;-92
2021/06/19 00:19:07;;;;;;;10.70;9.13;;;;;;;;;;5075410;28;20548;-89
2021/06/19 00:21:33;;;;;;;9.38;8.48;;;;;;;;;;5074781;28;20420;-93
2021/06/19 00:23:59;;;;;;;10.45;9.35;;;;;;;;;;5074766;28;20379;-92
2021/06/19 00:26:25;;;;;;;9.95;8.80;;;;;;;;;;5079522;28;20393;-92
2021/06/19 00:28:51;;;;;;;10.15;9.05;;;;;;;;;;5076831;28;20394;-92
2021/06/19 00:31:17;;;;;;;10.30;9.23;;;;;;;;;;5077546;28;20380;-92
2021/06/19 00:33:43;;;;;;;10.50;9.40;;;;;;;;;;5074859;28;20368;-92
2021/06/19 00:36:09;;;;;;;10.95;9.85;;;;;;;;;;5074563;28;20446;-92
2021/06/19 00:38:35;;;;;;;10.80;9.18;;;;;;;;;;5074513;28;20368;-92
2021/06/19 00:41:01;;;;;;;10.52;9.30;;;;;;;;;;5073747;28;20904;-91
2021/06/19 00:43:27;;;;;;;10.93;9.82;;;;;;;;;;5074428;28;20381;-91
2021/06/19 00:45:53;;;;;;;11.10;10.00;;;;;;;;;;5074623;28;20931;-91
2021/06/19 00:48:28;;;;;;;11.40;10.30;;;;;;;;;;5108306;28;20365;-91
2021/06/19 00:50:54;;;;;;;10.90;9.75;;;;;;;;;;5107569;28;20741;-91
2021/06/19 00:53:20;;;;;;;11.00;9.80;;;;;;;;;;5073769;28;20900;-92
2021/06/19 00:55:46;;;;;;;10.68;9.68;;;;;;;;;;5074151;28;20730;-90
2021/06/19 00:58:12;;;;;;;10.60;9.60;;;;;;;;;;5074298;28;20425;-91
2021/06/19 01:00:38;;;;;;;11.15;10.07;;;;;;;;;;5073808;28;20380;-92
2021/06/19 01:03:05;;;;;;;11.55;10.45;;;;;;;;;;5108120;28;20387;-92
2021/06/19 01:05:31;;;;;;;11.73;10.60;;;;;;;;;;5110711;28;20831;-92
2021/06/19 01:07:59;;;;;;;11.20;10.15;;;;;;;;;;5109610;28;20360;-92
2021/06/19 01:10:25;;;;;;;11.38;10.00;;;;;;;;;;5107299;28;20375;-91
2021/06/19 01:12:51;;;;;;;11.70;10.52;;;;;;;;;;5108301;28;20368;-93
2021/06/19 01:15:17;;;;;;;11.35;10.27;;;;;;;;;;5108984;28;20499;-91
2021/06/19 01:17:44;;;;;;;11.20;10.20;;;;;;;;;;5077847;28;20402;-92
2021/06/19 01:20:12;;;;;;;11.73;10.23;;;;;;;;;;5078373;28;20443;-92
2021/06/19 01:22:39;;;;;;;12.18;11.02;;;;;;;;;;5074366;28;20385;-92
2021/06/19 01:25:07;;;;;;;11.75;10.65;;;;;;;;;;5076618;28;20369;-91
2021/06/19 01:27:33;;;;;;;14.30;11.35;;;;;;;;;;5080191;28;20380;-91
2021/06/19 01:30:04;;;;;;;11.43;10.43;;;;;;;;;;5115578;28;20376;-93
2021/06/19 01:32:37;;;;;;;12.27;11.10;;;;;;;;;;5108840;28;20382;-93
2021/06/19 01:35:04;;;;;;;11.35;10.35;;;;;;;;;;5108521;28;20365;-91
2021/06/19 01:37:30;;;;;;;11.73;10.73;;;;;;;;;;5111474;28;20513;-92
2021/06/19 01:40:06;;;;;;;12.40;11.20;;;;;;;;;;5074330;28;20905;-92
2021/06/19 01:42:32;;;;;;;12.38;10.98;;;;;;;;;;5107412;28;20438;-92
2021/06/19 01:44:58;;;;;;;12.15;10.98;;;;;;;;;;5107099;28;20361;-92
2021/06/19 01:47:27;;;;;;;13.30;11.50;;;;;;;;;;5107866;28;20360;-92
2021/06/19 01:49:53;;;;;;;12.20;11.18;;;;;;;;;;5108840;28;20368;-92
2021/06/19 01:52:19;;;;;;;11.95;10.75;;;;;;;;;;5107755;28;20376;-92
2021/06/19 01:54:45;;;;;;;13.02;11.75;;;;;;;;;;5107605;28;20372;-93
2021/06/19 01:57:11;;;;;;;13.43;12.00;;;;;;;;;;5107425;28;20798;-93
2021/06/19 01:59:37;;;;;;;12.20;11.10;;;;;;;;;;5107158;28;20376;-93
2021/06/19 02:02:04;;;;;;;12.80;11.68;;;;;;;;;;5109455;28;20887;-94
2021/06/19 02:04:33;;;;;;;12.10;11.10;;;;;;;;;;5110572;28;20384;-92
2021/06/19 02:06:59;;;;;;;13.25;11.95;;;;;;;;;;5111300;28;20416;-94
2021/06/19 02:09:25;;;;;;;13.88;12.48;;;;;;;;;;5073843;28;20373;-93
2021/06/19 02:11:51;;;;;;;12.55;11.50;;;;;;;;;;5106875;28;20380;-92
2021/06/19 02:14:17;;;;;;;14.35;12.85;;;;;;;;;;5107118;28;20851;-93
2021/06/19 02:16:44;;;;;;;13.43;12.23;;;;;;;;;;5108012;28;20387;-93
2021/06/19 02:19:10;;;;;;;13.20;12.00;;;;;;;;;;5111727;28;20377;-93
2021/06/19 02:21:39;;;;;;;13.10;12.00;;;;;;;;;;5113703;28;20385;-92
2021/06/19 02:24:05;;;;;;;13.68;12.23;;;;;;;;;;5074636;28;20407;-93
2021/06/19 02:26:31;;;;;;;13.70;12.40;;;;;;;;;;5077797;28;20392;-93
2021/06/19 02:28:59;;;;;;;14.32;12.85;;;;;;;;;;5077186;28;20368;-94
2021/06/19 02:31:25;;;;;;;13.55;12.18;;;;;;;;;;5076555;28;20715;-92
2021/06/19 02:33:51;;;;;;;14.52;12.93;;;;;;;;;;5089547;28;20404;-92
2021/06/19 02:36:17;;;;;;;14.23;12.73;;;;;;;;;;5057070;28;20377;-93
2021/06/19 02:38:44;;;;;;;13.90;12.60;;;;;;;;;;5057613;28;20362;-92
2021/06/19 02:41:12;;;;;;;14.55;13.00;;;;;;;;;;5058021;28;20397;-92
2021/06/19 02:43:38;;;;;;;16.02;13.30;;;;;;;;;;5078057;28;20373;-92
2021/06/19 02:46:04;;;;;;;16.92;13.07;;;;;;;;;;5078776;28;20376;-93
2021/06/19 02:48:30;;;;;;;15.70;13.13;;;;;;;;;;5077824;28;20387;-92
2021/06/19 02:50:56;;;;;;;14.35;12.98;;;;;;;;;;5076539;28;20356;-92
2021/06/19 02:53:22;;;;;;;15.32;13.13;;;;;;;;;;5079625;28;20377;-92
2021/06/19 02:55:48;;;;;;;14.35;12.02;;;;;;;;;;5111762;28;20372;-92
2021/06/19 02:58:15;;;;;;;14.47;13.07;;;;;;;;;;5112726;28;20375;-93
2021/06/19 03:00:42;;;;;;;15.57;13.45;;;;;;;;;;5113114;28;20886;-92
2021/06/19 03:03:08;;;;;;;16.42;13.57;;;;;;;;;;5110628;28;20373;-93
2021/06/19 03:05:35;;;;;;;15.13;13.32;;;;;;;;;;5111083;28;20396;-93
2021/06/19 03:08:01;;;;;;;17.02;13.73;;;;;;;;;;5111554;28;20372;-93
2021/06/19 03:10:29;;;;;;;14.45;12.98;;;;;;;;;;5110415;28;20394;-93
2021/06/19 03:12:55;;;;;;;16.67;12.93;;;;;;;;;;5109953;28;20940;-93
2021/06/19 03:15:21;;;;;;;14.43;13.02;;;;;;;;;;5110323;28;20815;-93
2021/06/19 03:17:47;;;;;;;15.48;13.73;;;;;;;;;;5110094;28;20922;-93
2021/06/19 03:20:14;;;;;;;14.27;12.55;;;;;;;;;;5109878;28;20365;-92
2021/06/19 03:22:42;;;;;;;14.65;13.15;;;;;;;;;;5109520;28;21157;-92
2021/06/19 03:25:09;;;;;;;15.20;13.02;;;;;;;;;;5110765;28;20447;-93
2021/06/19 03:27:35;;;;;;;14.35;12.95;;;;;;;;;;5109889;28;20390;-92
2021/06/19 03:30:01;;;;;;;14.25;12.93;;;;;;;;;;5109427;28;20455;-92
2021/06/19 03:32:27;;;;;;;15.32;12.38;;;;;;;;;;5109337;28;20376;-92
2021/06/19 03:34:53;;;;;;;14.57;13.13;;;;;;;;;;5109958;28;20786;-92
2021/06/19 03:37:19;;;;;;;15.15;13.75;;;;;;;;;;5112841;28;20457;-92
2021/06/19 03:39:45;;;;;;;14.05;12.70;;;;;;;;;;5111378;28;20416;-93
2021/06/19 03:42:11;;;;;;;13.93;12.57;;;;;;;;;;5109523;28;20784;-92
2021/06/19 03:44:37;;;;;;;14.98;13.48;;;;;;;;;;5109224;28;20820;-93
2021/06/19 03:47:06;;;;;;;14.27;12.85;;;;;;;;;;5109427;28;20403;-93
2021/06/19 03:49:32;;;;;;;14.07;12.63;;;;;;;;;;5109489;28;20390;-93
2021/06/19 03:51:58;;;;;;;14.50;13.00;;;;;;;;;;5109512;28;20938;-92
2021/06/19 03:54:24;;;;;;;13.75;12.45;;;;;;;;;;5075533;28;20379;-92
2021/06/19 03:56:50;;;;;;;15.15;12.55;;;;;;;;;;5075317;28;20416;-93
2021/06/19 03:59:16;;;;;;;14.13;12.63;;;;;;;;;;5075657;28;20367;-93
2021/06/19 04:01:42;;;;;;;15.27;13.88;;;;;;;;;;5075689;28;20483;-92
2021/06/19 04:04:08;;;;;;;14.15;12.85;;;;;;;;;;5075115;28;20460;-92
2021/06/19 04:06:34;;;;;;;14.30;12.97;;;;;;;;;;5108692;28;20804;-93
2021/06/19 04:09:00;;;;;;;14.27;12.98;;;;;;;;;;5108451;28;20451;-92
2021/06/19 04:11:26;;;;;;;13.13;11.90;;;;;;;;;;5108894;28;20367;-93
2021/06/19 04:13:52;;;;;;;14.13;12.82;;;;;;;;;;5110085;28;20853;-92
2021/06/19 04:16:18;;;;;;;13.65;12.35;;;;;;;;;;5109196;28;20419;-93
2021/06/19 04:18:44;;;;;;;14.18;12.88;;;;;;;;;;5108794;28;20892;-93
2021/06/19 04:21:10;;;;;;;12.30;11.18;;;;;;;;;;5108599;28;20385;-92
2021/06/19 04:23:36;;;;;;;13.43;12.10;;;;;;;;;;5108167;28;20400;-94
2021/06/19 04:26:02;;;;;;;13.20;12.00;;;;;;;;;;5108649;28;20439;-93
2021/06/19 04:28:29;;;;;;;14.25;12.85;;;;;;;;;;5108733;28;20424;-94
2021/06/19 04:30:59;;;;;;;13.80;12.40;;;;;;;;;;5108758;28;20377;-93
2021/06/19 04:33:25;;;;;;;15.45;13.85;;;;;;;;;;5074858;28;20373;-92
2021/06/19 04:35:51;;;;;;;14.65;12.98;;;;;;;;;;5074956;28;20372;-93
2021/06/19 04:38:17;;;;;;;119.07;21.77;;;;;;;;;;5074858;28;20389;-92
2021/06/19 04:40:51;;;;;;;87.63;20.02;;;;;;;;;;5074400;28;20850;-93
2021/06/19 04:43:23;;;;;;;31.13;14.13;;;;;;;;;;5110835;28;20365;-90
2021/06/19 04:45:49;;;;;;;17.35;12.23;;;;;;;;;;5111137;28;20388;-94
2021/06/19 04:48:15;;;;;;;34.08;14.20;;;;;;;;;;5109068;28;20365;-93
2021/06/19 04:50:41;;;;;;;158.55;25.80;;;;;;;;;;5110585;28;20463;-93
2021/06/19 04:53:08;;;;;;;22.58;12.57;;;;;;;;;;5074400;28;20861;-90
2021/06/19 04:55:34;;;;;;;21.07;12.23;;;;;;;;;;5073673;28;20455;-91
2021/06/19 04:58:03;;;;;;;22.55;12.35;;;;;;;;;;5074668;28;20447;-90
2021/06/19 05:00:29;;;;;;;18.02;11.50;;;;;;;;;;5073980;28;20372;-92
2021/06/19 05:02:55;;;;;;;62.38;14.25;;;;;;;;;;5072881;28;20388;-92
2021/06/19 05:05:23;;;;;;;12.25;10.18;;;;;;;;;;5073580;28;20376;-90
2021/06/19 05:07:49;;;;;;;12.45;10.40;;;;;;;;;;5073150;28;20368;-92
2021/06/19 05:10:15;;;;;;;13.83;10.40;;;;;;;;;;5073860;28;20378;-91
2021/06/19 05:12:44;;;;;;;12.48;10.43;;;;;;;;;;5074092;28;20379;-92
2021/06/19 05:15:12;;;;;;;11.45;10.23;;;;;;;;;;5107547;28;20368;-90
2021/06/19 05:17:39;;;;;;;10.38;9.35;;;;;;;;;;5108135;28;20398;-91
2021/06/19 05:20:07;;;;;;;10.33;9.27;;;;;;;;;;5090740;28;20361;-90
2021/06/19 05:22:33;;;;;;;14.20;9.70;;;;;;;;;;5072522;28;20388;-91
2021/06/19 05:24:59;;;;;;;12.32;9.57;;;;;;;;;;5073647;28;20376;-91
2021/06/19 05:27:25;;;;;;;11.23;9.70;;;;;;;;;;5073184;28;20846;-90
2021/06/19 05:29:51;;;;;;;26.52;10.75;;;;;;;;;;5073281;28;20372;-91
2021/06/19 05:32:17;;;;;;;15.30;10.13;;;;;;;;;;5091333;28;20369;-90
2021/06/19 05:34:43;;;;;;;17.38;9.35;;;;;;;;;;5106970;28;20493;-92
2021/06/19 05:37:10;;;;;;;16.57;9.20;;;;;;;;;;5073690;28;20368;-92
2021/06/19 05:39:36;;;;;;;9.60;8.60;;;;;;;;;;5073715;28;20376;-93
2021/06/19 05:42:02;;;;;;;10.18;9.18;;;;;;;;;;5072553;28;20396;-91
2021/06/19 05:44:28;;;;;;;11.60;9.07;;;;;;;;;;5073188;28;20373;-92
2021/06/19 05:46:54;;;;;;;29.65;10.98;;;;;;;;;;5073259;28;20891;-92
2021/06/19 05:49:23;;;;;;;51.30;13.68;;;;;;;;;;5073039;28;20376;-92
2021/06/19 05:51:49;;;;;;;17.30;9.90;;;;;;;;;;5072655;28;20376;-91
2021/06/19 05:54:15;;;;;;;10.15;9.15;;;;;;;;;;5072778;28;20384;-91
2021/06/19 05:56:41;;;;;;;11.15;9.52;;;;;;;;;;5073626;28;20376;-89
2021/06/19 05:59:07;;;;;;;14.18;9.10;;;;;;;;;;5073127;28;20861;-91
2021/06/19 06:01:33;;;;;;;13.02;9.50;;;;;;;;;;5074038;28;20399;-91
2021/06/19 06:04:00;;;;;;;42.05;12.48;;;;;;;;;;5090683;28;20379;-89
2021/06/19 06:06:26;;;;;;;14.07;9.20;;;;;;;;;;5073076;28;20768;-91
2021/06/19 06:08:52;;;;;;;11.82;8.60;;;;;;;;;;5072963;28;20373;-89
2021/06/19 06:11:19;;;;;;;13.57;8.80;;;;;;;;;;5073064;28;20467;-92
2021/06/19 06:13:45;;;;;;;11.80;8.75;;;;;;;;;;5073038;28;20376;-90
2021/06/19 06:16:11;;;;;;;30.55;10.60;;;;;;;;;;5072574;28;20497;-92
2021/06/19 06:18:37;;;;;;;10.70;8.00;;;;;;;;;;5107425;28;20361;-92
2021/06/19 06:21:04;;;;;;;12.75;8.50;;;;;;;;;;5091188;28;20383;-92
2021/06/19 06:23:30;;;;;;;9.05;8.02;;;;;;;;;;5073370;28;20379;-92
2021/06/19 06:25:56;;;;;;;8.35;7.55;;;;;;;;;;5073318;28;20392;-89
2021/06/19 06:28:22;;;;;;;8.35;7.65;;;;;;;;;;5072936;28;20404;-90
2021/06/19 06:30:49;;;;;;;8.67;7.77;;;;;;;;;;5074392;28;20426;-89
2021/06/19 06:33:15;;;;;;;12.52;7.72;;;;;;;;;;5077184;28;20380;-92
2021/06/19 06:35:41;;;;;;;7.93;7.13;;;;;;;;;;5077049;28;20368;-91
2021/06/19 06:38:10;;;;;;;8.15;7.35;;;;;;;;;;5076763;28;20388;-91
2021/06/19 06:40:36;;;;;;;9.68;7.50;;;;;;;;;;5076897;28;20442;-91
2021/06/19 06:43:02;;;;;;;35.27;9.47;;;;;;;;;;5075897;28;20428;-92
2021/06/19 06:45:28;;;;;;;9.90;7.37;;;;;;;;;;5076417;28;20420;-92
2021/06/19 06:47:54;;;;;;;13.00;7.55;;;;;;;;;;5076415;28;20399;-92
2021/06/19 06:50:21;;;;;;;10.37;7.03;;;;;;;;;;5077476;28;20741;-90
2021/06/19 06:52:47;;;;;;;9.25;7.40;;;;;;;;;;5087887;28;20384;-94
2021/06/19 06:55:13;;;;;;;9.63;7.50;;;;;;;;;;5088728;28;20430;-91
2021/06/19 06:57:39;;;;;;;10.80;7.47;;;;;;;;;;5088345;28;20376;-91
2021/06/19 07:00:06;;;;;;;49.50;9.73;;;;;;;;;;5089639;28;20843;-89
2021/06/19 07:02:32;;;;;;;9.05;7.10;;;;;;;;;;5088712;28;20442;-92
2021/06/19 07:04:58;;;;;;;8.70;6.97;;;;;;;;;;5090121;28;20471;-89
2021/06/19 07:07:24;;;;;;;7.57;6.85;;;;;;;;;;5089854;28;20381;-91
2021/06/19 07:09:50;;;;;;;21.30;8.48;;;;;;;;;;5089601;28;20466;-92
2021/06/19 07:12:16;;;;;;;27.42;8.52;;;;;;;;;;5089833;28;20496;-92
2021/06/19 07:14:42;;;;;;;18.40;7.97;;;;;;;;;;5090446;28;20465;-91
2021/06/19 07:17:09;;;;;;;17.17;7.27;;;;;;;;;;5095762;28;20495;-88
2021/06/19 07:19:39;;;;;;;14.07;7.70;;;;;;;;;;5083561;28;20456;-91
2021/06/19 07:22:06;;;;;;;13.40;7.13;;;;;;;;;;5075307;28;20404;-90
2021/06/19 07:24:32;;;;;;;10.33;7.33;;;;;;;;;;5076458;28;20384;-92
2021/06/19 07:26:58;;;;;;;8.02;6.70;;;;;;;;;;5075980;28;20846;-90
2021/06/19 07:29:24;;;;;;;9.30;6.73;;;;;;;;;;5077513;28;20384;-92
2021/06/19 07:31:50;;;;;;;20.00;8.23;;;;;;;;;;5075793;28;20372;-92
2021/06/19 07:34:16;;;;;;;7.80;6.78;;;;;;;;;;5076820;28;20456;-91
2021/06/19 07:36:45;;;;;;;10.10;6.68;;;;;;;;;;5076266;28;20849;-89
2021/06/19 07:39:14;;;;;;;8.02;7.10;;;;;;;;;;5079257;28;20372;-94
2021/06/19 07:41:40;;;;;;;9.10;6.97;;;;;;;;;;5081048;28;20396;-92
2021/06/19 07:44:06;;;;;;;12.90;7.85;;;;;;;;;;5058754;28;20393;-91
2021/06/19 07:46:32;;;;;;;8.88;7.20;;;;;;;;;;5057504;28;20355;-95
2021/06/19 07:48:58;;;;;;;9.20;7.50;;;;;;;;;;5058335;28;20377;-91
2021/06/19 07:51:29;;;;;;;11.65;7.28;;;;;;;;;;5056299;28;20406;-95
2021/06/19 07:53:55;;;;;;;8.32;7.20;;;;;;;;;;5075170;28;20885;-94
2021/06/19 07:56:21;;;;;;;11.55;7.60;;;;;;;;;;5075543;28;20719;-90
2021/06/19 07:58:55;;;;;;;9.50;7.35;;;;;;;;;;5076816;28;20372;-93
2021/06/19 08:01:21;;;;;;;8.27;7.50;;;;;;;;;;5075089;28;20428;-91
2021/06/19 08:03:47;;;;;;;8.93;7.40;;;;;;;;;;5076403;28;20371;-88
2021/06/19 08:06:13;;;;;;;7.95;7.15;;;;;;;;;;5094250;28;20372;-92
2021/06/19 08:08:44;;;;;;;9.13;7.38;;;;;;;;;;5077393;28;20384;-93
2021/06/19 08:11:10;;;;;;;9.48;7.38;;;;;;;;;;5076178;28;20395;-92
2021/06/19 08:13:36;;;;;;;9.20;7.30;;;;;;;;;;5075389;28;20711;-91
2021/06/19 08:16:04;;;;;;;10.45;6.80;;;;;;;;;;5057754;28;20411;-89
2021/06/19 08:18:34;;;;;;;11.13;7.13;;;;;;;;;;5057525;28;20432;-92
2021/06/19 08:21:01;;;;;;;9.73;7.57;;;;;;;;;;5055806;28;20397;-92
2021/06/19 08:23:28;;;;;;;10.77;7.13;;;;;;;;;;5056204;28;20370;-90
2021/06/19 08:25:54;;;;;;;20.30;9.47;;;;;;;;;;5058885;28;20361;-91
2021/06/19 08:28:20;;;;;;;9.45;7.10;;;;;;;;;;5077422;28;20373;-92
2021/06/19 08:31:07;;;;;;;9.57;7.80;;;;;;;;;;5076247;28;20369;-94
2021/06/19 08:33:33;;;;;;;19.67;10.40;;;;;;;;;;5075669;28;20383;-92
2021/06/19 08:35:59;;;;;;;11.80;8.40;;;;;;;;;;5076285;28;20360;-93
2021/06/19 08:38:26;;;;;;;13.90;8.75;;;;;;;;;;5074816;28;20377;-90
2021/06/19 08:40:52;;;;;;;9.23;7.90;;;;;;;;;;5074117;28;20425;-90
2021/06/19 08:43:19;;;;;;;10.10;7.50;;;;;;;;;;5072030;28;20400;-88
2021/06/19 08:45:50;;;;;;;12.88;7.63;;;;;;;;;;5073225;28;20924;-93
2021/06/19 08:48:22;;;;;;;10.35;7.53;;;;;;;;;;5075093;28;20480;-92
2021/06/19 08:50:48;;;;;;;9.25;8.27;;;;;;;;;;5074683;28;20369;-92
2021/06/19 08:53:16;;;;;;;10.65;7.47;;;;;;;;;;5074102;28;20373;-89
2021/06/19 08:55:42;;;;;;;7.72;6.68;;;;;;;;;;5074400;28;20380;-92
2021/06/19 08:58:08;;;;;;;7.93;6.93;;;;;;;;;;5074081;28;20388;-93
2021/06/19 09:00:34;;;;;;;7.72;6.70;;;;;;;;;;5074560;28;20522;-92
2021/06/19 09:03:00;;;;;;;8.57;6.78;;;;;;;;;;5070666;28;20478;-91
2021/06/19 09:05:30;;;;;;;9.27;6.88;;;;;;;;;;5062193;28;20368;-91
2021/06/19 09:07:58;;;;;;;7.07;6.38;;;;;;;;;;5069031;28;20373;-88
2021/06/19 09:10:26;;;;;;;6.57;5.77;;;;;;;;;;5076013;28;20372;-92
2021/06/19 09:13:03;;;;;;;7.17;5.87;;;;;;;;;;5075022;28;20360;-92
2021/06/19 09:15:58;;;;;;;6.40;5.78;;;;;;;;;;5074060;28;20485;-93
2021/06/19 09:18:24;;;;;;;6.55;5.72;;;;;;;;;;5072081;28;20368;-92
2021/06/19 09:20:52;;;;;;;6.88;5.50;;;;;;;;;;5073947;28;20530;-89
2021/06/19 09:23:37;;;;;;;7.83;5.83;;;;;;;;;;5064782;28;21755;-90
2021/06/19 09:26:08;;;;;;;10.38;7.28;;;;;;;;;;5070515;28;20387;-92
2021/06/19 09:28:53;;;;;;;9.30;6.10;;;;;;;;;;5076443;28;20735;-89
2021/06/19 09:31:38;;;;;;;10.05;5.90;;;;;;;;;;5074508;28;20447;-90
2021/06/19 09:34:04;;;;;;;7.20;5.70;;;;;;;;;;5072701;28;20365;-90
2021/06/19 09:36:37;;;;;;;14.25;5.82;;;;;;;;;;5074817;28;20364;-90
2021/06/19 09:39:07;;;;;;;127.43;16.65;;;;;;;;;;5071590;28;20372;-87
2021/06/19 09:41:34;;;;;;;18.10;7.00;;;;;;;;;;5075559;28;20437;-92
2021/06/19 09:44:00;;;;;;;11.17;6.00;;;;;;;;;;5074724;28;20365;-91
2021/06/19 09:46:31;;;;;;;9.13;5.90;;;;;;;;;;5074494;28;20388;-92
2021/06/19 09:49:12;;;;;;;10.02;6.60;;;;;;;;;;5073486;28;20372;-90
2021/06/19 09:51:44;;;;;;;5.78;4.20;;;;;;;;;;5061365;28;20372;-90
2021/06/19 09:54:10;;;;;;;8.70;5.28;;;;;;;;;;5074572;28;20377;-91
2021/06/19 09:56:48;;;;;;;11.77;4.97;;;;;;;;;;5072665;28;20426;-89
2021/06/19 09:59:24;;;;;;;4.75;4.35;;;;;;;;;;5077864;28;20971;-92
2021/06/19 10:01:50;;;;;;;5.72;4.57;;;;;;;;;;5086047;28;20404;-87
2021/06/19 10:04:19;;;;;;;5.68;4.70;;;;;;;;;;5100173;28;20383;-90
2021/06/19 10:06:46;;;;;;;7.00;4.60;;;;;;;;;;5083589;28;20710;-91
2021/06/19 10:09:14;;;;;;;5.70;4.38;;;;;;;;;;5080222;28;20722;-93
2021/06/19 10:11:40;;;;;;;8.80;4.35;;;;;;;;;;5099345;28;20364;-88
2021/06/19 10:14:09;;;;;;;5.20;3.40;;;;;;;;;;5079520;28;20711;-90
2021/06/19 10:16:40;;;;;;;4.03;3.50;;;;;;;;;;5100589;28;20368;-91
2021/06/19 10:19:18;;;;;;;5.43;3.63;;;;;;;;;;5083161;28;20414;-93
2021/06/19 10:21:45;;;;;;;4.40;3.55;;;;;;;;;;5079970;28;20540;-92
2021/06/19 10:24:11;;;;;;;14.77;4.72;;;;;;;;;;5079819;28;20730;-92
2021/06/19 10:26:41;;;;;;;6.20;3.80;;;;;;;;;;5078406;28;20378;-89
2021/06/19 10:29:08;;;;;;;4.72;3.60;;;;;;;;;;5078839;28;20418;-90
2021/06/19 10:31:38;;;;;;;4.72;3.45;;;;;;;;;;5078480;28;20451;-91
2021/06/19 10:34:23;;;;;;;7.90;3.90;;;;;;;;;;5080070;28;20456;-89
2021/06/19 10:36:50;;;;;;;6.35;3.75;;;;;;;;;;5078541;28;20383;-91
2021/06/19 10:39:32;;;;;;;4.95;3.88;;;;;;;;;;5078499;28;20455;-89
2021/06/19 10:41:58;;;;;;;6.78;4.15;;;;;;;;;;5078326;28;20388;-91
2021/06/19 10:44:45;;;;;;;5.88;4.03;;;;;;;;;;5078741;28;20427;-91
2021/06/19 10:47:21;;;;;;;6.65;3.92;;;;;;;;;;5081309;28;20464;-92
2021/06/19 10:49:48;;;;;;;5.30;3.73;;;;;;;;;;5069632;28;20373;-91
2021/06/19 10:52:24;;;;;;;4.50;3.63;;;;;;;;;;5079353;28;20723;-91
2021/06/19 10:55:14;;;;;;;6.28;4.00;;;;;;;;;;5079520;28;20376;-91
2021/06/19 10:57:47;;;;;;;6.63;4.40;;;;;;;;;;5078980;28;20364;-91
2021/06/19 11:00:27;;;;;;;4.50;3.95;;;;;;;;;;5079265;28;20387;-93
2021/06/19 11:02:57;;;;;;;5.00;4.47;;;;;;;;;;5078636;28;20475;-89
2021/06/19 11:05:45;;;;;;;7.72;4.43;;;;;;;;;;5078006;28;20411;-90
2021/06/19 11:08:13;;;;;;;6.77;4.27;;;;;;;;;;5077539;28;20369;-90
2021/06/19 11:10:48;;;;;;;4.97;4.15;;;;;;;;;;5099516;28;20861;-91
2021/06/19 11:13:30;;;;;;;5.10;4.20;;;;;;;;;;5078988;28;20372;-90
2021/06/19 11:16:00;;;;;;;8.02;4.68;;;;;;;;;;5098173;28;20396;-93
2021/06/19 11:18:45;;;;;;;7.20;4.80;;;;;;;;;;5075941;28;20385;-91
2021/06/19 11:21:11;;;;;;;11.57;5.35;;;;;;;;;;5078003;28;20398;-90
2021/06/19 11:23:56;;;;;;;9.70;4.75;;;;;;;;;;5077434;28;21196;-89
2021/06/19 11:26:46;;;;;;;7.88;4.70;;;;;;;;;;5078118;28;20410;-88
2021/06/19 11:29:31;;;;;;;6.65;4.78;;;;;;;;;;5090737;28;20726;-91
2021/06/19 11:34:46;;;;;;;7.60;4.93;;;;;;;;;;5087448;28;20465;-91
2021/06/19 11:37:12;;;;;;;7.90;5.40;;;;;;;;;;5085354;28;20388;-90
2021/06/19 11:39:38;;;;;;;13.13;5.63;;;;;;;;;;5071101;28;20378;-87
2021/06/19 11:42:10;;;;;;;8.05;5.32;;;;;;;;;;5068409;28;20407;-93
2021/06/19 11:44:44;;;;;;;6.55;5.95;;;;;;;;;;5078074;28;20376;-92
2021/06/19 11:47:13;;;;;;;8.18;6.40;;;;;;;;;;5072117;28;20365;-92
2021/06/19 11:49:46;;;;;;;10.88;6.43;;;;;;;;;;5074253;28;20381;-92
2021/06/19 11:52:16;;;;;;;11.20;7.53;;;;;;;;;;5072854;28;20416;-91
2021/06/19 11:54:44;;;;;;;10.80;6.97;;;;;;;;;;5069712;28;20885;-91
2021/06/19 11:57:11;;;;;;;9.23;6.88;;;;;;;;;;5091716;28;20374;-91
2021/06/19 11:59:38;;;;;;;8.35;7.38;;;;;;;;;;5074607;28;20493;-90
2021/06/19 12:02:11;;;;;;;8.25;6.60;;;;;;;;;;5070230;28;20419;-89
2021/06/19 12:04:37;;;;;;;8.60;7.15;;;;;;;;;;5073414;28;20364;-93
2021/06/19 12:07:03;;;;;;;8.20;6.60;;;;;;;;;;5074486;28;20391;-89
2021/06/19 12:09:31;;;;;;;9.57;7.20;;;;;;;;;;5076483;28;20878;-90
2021/06/19 12:12:03;;;;;;;10.23;7.43;;;;;;;;;;5075962;28;20441;-93
2021/06/19 12:14:33;;;;;;;8.77;6.77;;;;;;;;;;5075345;28;20387;-88
2021/06/19 12:17:12;;;;;;;11.75;7.05;;;;;;;;;;5076314;28;20375;-93
2021/06/19 12:19:39;;;;;;;8.90;6.88;;;;;;;;;;5077075;28;20364;-92
2021/06/19 12:22:06;;;;;;;8.77;7.07;;;;;;;;;;5093860;28;20396;-89
2021/06/19 12:24:33;;;;;;;8.73;7.25;;;;;;;;;;5057752;28;20398;-92
2021/06/19 12:27:04;;;;;;;11.40;7.68;;;;;;;;;;5056768;28;20435;-90
2021/06/19 12:29:35;;;;;;;8.45;7.00;;;;;;;;;;5079238;28;20379;-91
2021/06/19 12:32:04;;;;;;;8.38;6.72;;;;;;;;;;5076860;28;20368;-91
2021/06/19 12:34:30;;;;;;;7.28;6.10;;;;;;;;;;5076091;28;20464;-90
2021/06/19 12:37:02;;;;;;;9.60;6.65;;;;;;;;;;5077603;28;20376;-91
2021/06/19 12:39:38;;;;;;;8.90;6.38;;;;;;;;;;5076974;28;20443;-92
2021/06/19 12:42:06;;;;;;;8.57;6.82;;;;;;;;;;5071349;28;20447;-92
2021/06/19 12:44:38;;;;;;;7.60;6.63;;;;;;;;;;5074180;28;20819;-90
2021/06/19 12:47:19;;;;;;;14.32;7.53;;;;;;;;;;5072938;28;20370;-93
2021/06/19 12:49:59;;;;;;;7.45;6.43;;;;;;;;;;5076788;28;20433;-91
2021/06/19 12:52:26;;;;;;;13.45;7.10;;;;;;;;;;5073897;28;20380;-92
2021/06/19 12:55:11;;;;;;;11.07;6.57;;;;;;;;;;5075597;28;20375;-91
2021/06/19 12:57:40;;;;;;;9.90;7.20;;;;;;;;;;5074477;28;20395;-89
2021/06/19 13:00:10;;;;;;;10.23;7.32;;;;;;;;;;5092680;28;20447;-90
2021/06/19 13:03:12;;;;;;;8.88;7.28;;;;;;;;;;5092648;28;20427;-91
2021/06/19 13:05:50;;;;;;;9.37;7.50;;;;;;;;;;5024867;28;20380;-90
2021/06/19 13:08:16;;;;;;;10.32;7.60;;;;;;;;;;5072652;28;20940;-89
2021/06/19 13:10:42;;;;;;;12.15;7.47;;;;;;;;;;5073242;28;20369;-89
2021/06/19 13:13:14;;;;;;;10.80;7.80;;;;;;;;;;5071471;28;20455;-91
2021/06/19 13:15:58;;;;;;;11.40;7.50;;;;;;;;;;5075511;28;20372;-89
2021/06/19 13:18:24;;;;;;;12.27;7.27;;;;;;;;;;5086184;28;20384;-89
2021/06/19 13:20:58;;;;;;;11.52;8.02;;;;;;;;;;5085382;28;20888;-89
2021/06/19 13:23:24;;;;;;;12.98;8.20;;;;;;;;;;5078151;28;20948;-90
2021/06/19 13:25:54;;;;;;;13.93;7.80;;;;;;;;;;5073959;28;20379;-91
2021/06/19 13:28:33;;;;;;;12.10;7.63;;;;;;;;;;5073475;28;20375;-91
2021/06/19 13:31:08;;;;;;;10.90;7.40;;;;;;;;;;5073515;28;20399;-90
2021/06/19 13:33:39;;;;;;;13.77;7.57;;;;;;;;;;5075880;28;20372;-88
2021/06/19 13:36:14;;;;;;;10.43;7.87;;;;;;;;;;5071436;28;20375;-89
2021/06/19 13:38:50;;;;;;;16.70;7.37;;;;;;;;;;5073766;28;20371;-88
2021/06/19 13:41:33;;;;;;;12.07;7.28;;;;;;;;;;5072489;28;20372;-88
2021/06/19 13:43:59;;;;;;;14.17;7.47;;;;;;;;;;5072679;28;20396;-90
2021/06/19 13:46:27;;;;;;;13.05;7.18;;;;;;;;;;5074835;28;20388;-90
2021/06/19 13:48:53;;;;;;;13.40;7.43;;;;;;;;;;5072922;28;20373;-88
2021/06/19 13:51:20;;;;;;;16.58;7.65;;;;;;;;;;5073043;28;20397;-90
2021/06/19 13:54:03;;;;;;;14.05;7.95;;;;;;;;;;5074422;28;20849;-89
2021/06/19 13:56:29;;;;;;;12.10;7.78;;;;;;;;;;5074454;28;20369;-90
2021/06/19 13:58:55;;;;;;;13.87;7.70;;;;;;;;;;5073566;28;20398;-89
2021/06/19 14:01:21;;;;;;;12.00;7.50;;;;;;;;;;5075007;28;20365;-90
2021/06/19 14:03:47;;;;;;;11.73;7.88;;;;;;;;;;5075530;28;20408;-90
2021/06/19 14:06:14;;;;;;;13.20;8.00;;;;;;;;;;5074436;28;20368;-91
2021/06/19 14:08:45;;;;;;;14.38;7.80;;;;;;;;;;5074644;28;20361;-88
2021/06/19 14:11:11;;;;;;;15.25;8.40;;;;;;;;;;5073428;28;20884;-86
2021/06/19 14:13:38;;;;;;;12.30;7.65;;;;;;;;;;5072957;28;20360;-89
2021/06/19 14:16:05;;;;;;;11.32;7.93;;;;;;;;;;5075748;28;20364;-94
2021/06/19 14:18:31;;;;;;;10.93;8.13;;;;;;;;;;5079744;28;20801;-92
2021/06/19 14:20:59;;;;;;;14.45;8.05;;;;;;;;;;5077030;28;20364;-90
2021/06/19 14:23:25;;;;;;;20.60;8.18;;;;;;;;;;5075656;28;20390;-90
2021/06/19 14:25:52;;;;;;;16.40;8.55;;;;;;;;;;5076063;28;20453;-89
2021/06/19 14:28:18;;;;;;;13.02;8.43;;;;;;;;;;5073748;28;20455;-90
2021/06/19 14:30:46;;;;;;;14.13;7.78;;;;;;;;;;5075120;28;20373;-92
2021/06/19 14:33:12;;;;;;;16.03;8.90;;;;;;;;;;5073387;28;20447;-89
2021/06/19 14:35:38;;;;;;;14.20;8.15;;;;;;;;;;5074988;28;20376;-88
2021/06/19 14:38:04;;;;;;;13.75;8.52;;;;;;;;;;5072574;28;20365;-91
2021/06/19 14:40:38;;;;;;;13.25;8.40;;;;;;;;;;5072464;28;20364;-91
2021/06/19 14:43:04;;;;;;;20.92;8.40;;;;;;;;;;5079339;28;20402;-90